Eagle, AK

9:46 AM AKDT on July 31, 2015 (GMT -0800)
Eagle | | Change Station
CLOSE
Current Station
Airport
Location: Eagle,
Elevation: 879 ft
Nearby Weather Stations

Elev 879 ft 64.78 °N, 141.15 °W | Updated 53 minutes ago

Partly Cloudy
Partly Cloudy
56 °F
Feels Like 56 °F
N
0
Wind Variable Wind from North

Today
High -- | Low -- °F
--% Chance of Precip.
Yesterday
High -- | Low -- °F
Precip. -- in
4:21 AM 10:38 PM
Full, 100% visible
Pressure 30.05 in
Visibility 8.0 miles
Clouds Few 11000 ft
Dew Point 48 °F
Humidity 75%
Rainfall 0.00 in
Snow Depth Not available.
UV 2 out of 12
Pollen Not available.
Air Quality Not available.
Flu Activity Not available.
METAR PAEG 311653Z AUTO 00000KT 8SM FEW110 13/09 A3005 RMK AO1 SLP176 T01330089 TSNO $

More Conditions Fewer Conditions

Pressure 30.05 in
Visibility 8.0 miles
Clouds Few 11000 ft
Dew Point 48 °F
Humidity 75%
Rainfall 0.00 in
Snow Depth Not available.
UV 2 out of 12
Pollen Not available.
Air Quality Not available.
Flu Activity Not available.
METAR PAEG 311653Z AUTO 00000KT 8SM FEW110 13/09 A3005 RMK AO1 SLP176 T01330089 TSNO $

More Conditions Fewer Conditions

10-Day Weather Forecast

×

Almanac

Astronomy

Jul. 31, 2015 Rise Set
Actual Time
Civil Twilight
Nautical Twilight
Astronomical Twilight
Moon
Length of Visible Light
Length of Day
Tomorrow will be .
, % of the Moon is Illuminated

Today's Extremes

State Highs State Lows

Community

WunderPhotos

Upload Photos

1,842,703 photos uploaded!

WunderBlogs® & News

Nearby

Air Quality

  Air Quality AQ Index Pollutant
Not available.

Snow Depth

Station Depth Elevation

Earthquake Activity

City Distance Mag. Time & Date
Minimum magnitude displayed is 2.5.

Coastal Water Temperatures

Place Temperature

Stations

Nearby Weather Stations

Station Location Temp. Windchill Dew Point Humidity Wind Precip. Elev Updated Type